Time;durP1;ratioP1;P1;durP2;ratioP2;P2;SDS_P1;SDS_P2;PMS_P1;PMS_P2;Temp;Humidity;BMP_temperature;BMP_pressure;BME280_temperature;BME280_humidity;BME280_pressure;Samples;Min_cycle;Max_cycle;Signal;HPM_P1;HPM_P2
2021/06/11 00:00:57;;;;;;;3.68;3.38;;;;;;;16.11;100.00;100443.72;257969;1096;114428;-73
2021/06/11 00:05:59;;;;;;;4.30;3.90;;;;;;;16.15;100.00;100434.48;257935;1096;114956;-71
2021/06/11 00:11:04;;;;;;;4.35;3.83;;;;;;;16.22;100.00;100438.52;257563;1096;115173;-72
2021/06/11 00:16:12;;;;;;;5.40;3.55;;;;;;;16.08;100.00;100436.71;257915;1095;115396;-73
2021/06/11 00:26:39;;;;;;;6.33;4.20;;;;;;;15.91;100.00;100432.39;257338;1096;114602;-74
2021/06/11 00:31:41;;;;;;;5.43;4.38;;;;;;;15.78;100.00;100437.61;258291;1096;114711;-71
2021/06/11 00:36:42;;;;;;;6.55;4.70;;;;;;;15.63;100.00;100434.05;256626;1095;208809;-70
2021/06/11 00:41:44;;;;;;;5.15;4.70;;;;;;;15.80;100.00;100419.58;256686;1095;115019;-71
2021/06/11 00:46:48;;;;;;;7.30;4.50;;;;;;;15.93;100.00;100414.31;257458;1096;115119;-72
2021/06/11 00:51:56;;;;;;;5.80;4.60;;;;;;;15.98;100.00;100414.03;256621;1096;114606;-71
2021/06/11 00:57:01;;;;;;;8.85;4.68;;;;;;;15.80;100.00;100411.52;257069;1096;114974;-74
2021/06/11 01:02:23;;;;;;;5.20;4.70;;;;;;;15.47;100.00;100423.34;258327;1096;115035;-69
2021/06/11 01:07:26;;;;;;;8.80;5.80;;;;;;;15.43;100.00;100416.43;256774;1096;115102;-72
2021/06/11 01:12:33;;;;;;;9.18;6.30;;;;;;;15.19;100.00;100416.08;258303;1097;115141;-72
2021/06/11 01:17:41;;;;;;;6.15;5.65;;;;;;;15.10;100.00;100418.34;256982;1096;115022;-73
2021/06/11 01:28:13;;;;;;;6.73;5.25;;;;;;;15.26;100.00;100417.44;258437;1096;114978;-70
2021/06/11 01:33:19;;;;;;;7.00;6.00;;;;;;;15.13;100.00;100419.97;258077;1095;114674;-70
2021/06/11 01:38:25;;;;;;;6.28;5.68;;;;;;;14.98;100.00;100427.97;257647;1095;114645;-70
2021/06/11 01:43:27;;;;;;;7.90;6.18;;;;;;;15.11;100.00;100421.91;256791;1095;115136;-70
2021/06/11 01:48:29;;;;;;;6.00;5.50;;;;;;;15.08;100.00;100420.23;257006;1094;114765;-70
2021/06/11 01:53:31;;;;;;;7.75;6.55;;;;;;;15.05;100.00;100420.44;256980;1095;114829;-70
2021/06/11 01:58:35;;;;;;;7.57;6.20;;;;;;;14.99;100.00;100418.11;256345;1096;115102;-71
2021/06/11 02:03:38;;;;;;;7.40;6.70;;;;;;;14.78;100.00;100415.72;257625;1096;114718;-71
2021/06/11 02:08:41;;;;;;;8.00;6.90;;;;;;;14.58;100.00;100429.37;256866;1095;115079;-70
2021/06/11 02:19:07;;;;;;;7.13;6.43;;;;;;;14.62;100.00;100425.55;256767;1098;114724;-69
2021/06/11 02:24:10;;;;;;;7.60;6.20;;;;;;;14.78;100.00;100431.81;258197;1099;114750;31
2021/06/11 02:29:12;;;;;;;8.50;6.90;;;;;;;14.60;100.00;100428.33;256232;1097;114327;-69
2021/06/11 02:34:13;;;;;;;7.75;6.93;;;;;;;14.37;100.00;100420.69;257715;1096;114704;-70
2021/06/11 02:39:15;;;;;;;8.15;6.85;;;;;;;14.56;100.00;100420.53;256860;1096;114779;-71
2021/06/11 02:44:21;;;;;;;14.80;7.78;;;;;;;14.52;100.00;100416.30;257595;1096;114793;-72
2021/06/11 02:49:29;;;;;;;9.13;6.40;;;;;;;14.53;100.00;100423.38;258130;1095;115068;-71
2021/06/11 02:54:37;;;;;;;8.50;7.23;;;;;;;14.52;100.00;100435.94;258686;1094;114723;-70
2021/06/11 02:59:55;;;;;;;8.27;7.13;;;;;;;14.40;100.00;100432.11;257707;1100;114927;-72
2021/06/11 03:04:57;;;;;;;11.63;7.30;;;;;;;14.28;100.00;100443.52;256908;1099;114700;-70
2021/06/11 03:10:08;;;;;;;8.60;6.63;;;;;;;14.22;100.00;100441.18;257126;1098;114624;-73
2021/06/11 03:15:13;;;;;;;10.00;7.15;;;;;;;14.15;100.00;100444.20;257136;1099;114887;-71
2021/06/11 03:20:22;;;;;;;7.70;6.90;;;;;;;14.30;100.00;100436.27;255934;1098;115366;-71
2021/06/11 03:25:30;;;;;;;7.77;7.07;;;;;;;14.18;100.00;100444.02;257137;1098;114478;-71
2021/06/11 03:30:33;;;;;;;10.00;7.58;;;;;;;14.17;100.00;100436.06;257000;1098;114997;-70
2021/06/11 03:35:46;;;;;;;10.13;8.13;;;;;;;14.17;100.00;100438.75;258144;1096;114773;-70
2021/06/11 03:40:48;;;;;;;11.05;8.00;;;;;;;14.19;100.00;100443.07;258661;1095;115256;-69
2021/06/11 03:45:51;;;;;;;11.43;8.57;;;;;;;14.33;100.00;100441.45;256354;1095;115564;-72
2021/06/11 03:50:54;;;;;;;9.03;7.83;;;;;;;14.29;100.00;100451.47;257125;1095;114893;-70
2021/06/11 03:56:00;;;;;;;16.08;11.00;;;;;;;14.33;100.00;100446.81;257706;1096;114909;-71
2021/06/11 04:01:04;;;;;;;11.00;9.60;;;;;;;14.46;100.00;100445.17;257824;1099;115265;-74
2021/06/11 04:06:11;;;;;;;11.70;10.13;;;;;;;14.61;100.00;100437.22;257720;1098;115185;-60
2021/06/11 04:11:25;;;;;;;12.17;8.93;;;;;;;14.69;100.00;100443.06;256728;1099;115058;-70
2021/06/11 04:16:47;;;;;;;9.30;8.23;;;;;;;14.71;100.00;100434.92;256516;1098;114974;-69
2021/06/11 04:21:59;;;;;;;10.65;8.55;;;;;;;14.72;100.00;100440.22;257542;1098;115163;-71
2021/06/11 04:27:07;;;;;;;10.08;8.90;;;;;;;14.58;100.00;100449.00;256875;1098;115198;-70
2021/06/11 04:32:09;;;;;;;10.47;9.30;;;;;;;14.65;100.00;100437.00;258582;1096;115438;-69
2021/06/11 04:37:19;;;;;;;12.95;9.80;;;;;;;14.87;100.00;100448.35;258002;1095;115201;-71
2021/06/11 04:42:20;;;;;;;11.80;9.03;;;;;;;15.04;100.00;100442.86;257633;1096;114972;-69
2021/06/11 04:47:22;;;;;;;11.33;9.45;;;;;;;15.28;100.00;100445.08;256967;1096;114781;-70
2021/06/11 04:52:24;;;;;;;10.43;8.98;;;;;;;15.27;100.00;100437.97;257645;1096;115008;-70
2021/06/11 04:57:29;;;;;;;10.30;9.20;;;;;;;15.29;100.00;100436.07;257417;1096;115217;-73
2021/06/11 05:02:30;;;;;;;15.15;10.88;;;;;;;15.41;100.00;100429.97;257391;1096;115651;-70
2021/06/11 05:07:32;;;;;;;14.90;10.58;;;;;;;15.61;100.00;100438.64;256642;1096;114975;-70
2021/06/11 05:12:35;;;;;;;15.58;10.43;;;;;;;15.91;100.00;100437.77;257356;1096;115440;-72
2021/06/11 05:17:36;;;;;;;12.18;10.68;;;;;;;16.04;100.00;100436.04;257473;1096;115683;-70
2021/06/11 05:22:38;;;;;;;14.70;10.95;;;;;;;16.15;100.00;100434.48;256849;1096;115418;-71
2021/06/11 05:27:44;;;;;;;12.08;9.05;;;;;;;16.28;100.00;100435.44;257127;1095;114989;-74
2021/06/11 05:32:46;;;;;;;19.08;8.50;;;;;;;16.51;100.00;100441.19;257441;1096;114798;-70
2021/06/11 05:38:20;;;;;;;9.63;7.40;;;;;;;16.84;100.00;100437.28;259270;1096;115256;-72
2021/06/11 05:43:30;;;;;;;11.30;6.55;;;;;;;17.00;100.00;100446.09;257096;1099;114790;31
2021/06/11 05:48:36;;;;;;;8.18;6.95;;;;;;;17.07;100.00;100446.56;257348;1098;114846;-72
2021/06/11 05:53:46;;;;;;;6.38;5.75;;;;;;;17.10;100.00;100442.80;257315;1098;114963;-75
2021/06/11 05:58:52;;;;;;;7.43;6.73;;;;;;;17.23;100.00;100442.84;256212;1098;114903;-71
2021/06/11 06:03:53;;;;;;;7.25;6.45;;;;;;;17.29;100.00;100445.98;256723;1098;114696;-70
2021/06/11 06:08:55;;;;;;;11.47;7.80;;;;;;;17.32;100.00;100445.78;257540;1098;115291;-70
2021/06/11 06:13:56;;;;;;;10.25;7.38;;;;;;;17.36;100.00;100436.52;258119;1096;115301;-72
2021/06/11 06:18:58;;;;;;;13.75;7.03;;;;;;;17.54;100.00;100447.02;256741;1096;115215;-69
2021/06/11 06:24:01;;;;;;;13.98;7.85;;;;;;;17.76;100.00;100440.15;257322;1096;114938;-76
2021/06/11 06:29:03;;;;;;;11.30;7.63;;;;;;;17.90;100.00;100431.92;257581;1096;114657;-71
2021/06/11 06:34:05;;;;;;;11.73;7.57;;;;;;;18.04;100.00;100436.39;257874;1096;115021;-71
2021/06/11 06:39:13;;;;;;;9.30;6.73;;;;;;;18.14;100.00;100444.69;257389;1098;114855;-72
2021/06/11 06:44:15;;;;;;;9.38;6.70;;;;;;;18.19;98.67;100442.52;257636;1097;115325;-70
2021/06/11 06:49:17;;;;;;;9.58;5.80;;;;;;;18.23;98.77;100438.66;256981;1097;114877;-68
2021/06/11 06:54:18;;;;;;;7.17;4.60;;;;;;;18.30;94.94;100437.23;257293;1096;114446;-71
2021/06/11 06:59:23;;;;;;;4.75;4.23;;;;;;;18.44;92.45;100430.83;258251;1095;114796;-73
2021/06/11 07:04:30;;;;;;;6.20;4.55;;;;;;;18.31;91.61;100433.57;257238;1097;114606;-75
2021/06/11 07:09:31;;;;;;;7.33;4.38;;;;;;;18.25;93.40;100442.11;258112;1097;114625;-72
2021/06/11 07:14:35;;;;;;;6.58;4.05;;;;;;;18.28;94.35;100447.27;257520;1098;114671;-71
2021/06/11 07:19:44;;;;;;;7.60;5.15;;;;;;;18.50;95.69;100442.17;257490;1096;114500;-74
2021/06/11 07:24:46;;;;;;;7.90;5.20;;;;;;;18.71;93.85;100434.33;257487;1096;114452;-70
2021/06/11 07:29:50;;;;;;;6.05;5.45;;;;;;;18.80;94.77;100436.36;257325;1096;114631;-72
2021/06/11 07:34:52;;;;;;;6.20;5.20;;;;;;;18.95;92.59;100427.16;257158;1096;114873;-74
2021/06/11 07:39:56;;;;;;;6.95;4.40;;;;;;;18.90;89.41;100437.38;257981;1096;114927;-72
2021/06/11 07:45:00;;;;;;;5.00;3.88;;;;;;;18.93;89.68;100430.91;257043;1096;114640;-71
2021/06/11 07:50:05;;;;;;;7.45;4.38;;;;;;;19.19;88.09;100431.66;257792;1100;113464;-70
2021/06/11 07:55:09;;;;;;;7.25;5.78;;;;;;;19.04;90.06;100428.29;257269;1096;115040;-71
2021/06/11 08:00:11;;;;;;;7.13;4.40;;;;;;;19.19;89.15;100439.77;257995;1096;115042;-71
2021/06/11 08:05:13;;;;;;;3.98;3.58;;;;;;;19.37;88.25;100431.25;258097;1096;114955;-71
2021/06/11 08:10:14;;;;;;;6.73;3.75;;;;;;;19.66;84.68;100433.55;257521;1095;114956;-70
2021/06/11 08:20:20;;;;;;;10.95;7.65;;;;;;;19.72;80.55;100419.55;257845;1096;114460;-72
2021/06/11 08:25:24;;;;;;;5.10;4.07;;;;;;;19.71;80.00;100415.13;256855;1097;114754;-71
2021/06/11 08:30:31;;;;;;;5.38;4.98;;;;;;;20.10;78.67;100418.38;257383;1095;113542;-71
2021/06/11 08:35:35;;;;;;;7.60;3.88;;;;;;;20.15;77.35;100418.89;257900;1096;114409;-71
2021/06/11 08:46:11;;;;;;;6.50;3.60;;;;;;;20.19;79.99;100419.51;257516;1096;114835;-72
2021/06/11 08:51:22;;;;;;;6.30;5.70;;;;;;;20.23;74.31;100416.41;258045;1099;115124;-76
2021/06/11 08:56:26;;;;;;;6.93;3.73;;;;;;;20.24;74.30;100417.28;257707;1098;115066;-74
2021/06/11 09:01:28;;;;;;;5.25;4.08;;;;;;;20.37;75.81;100422.55;257891;1097;114973;-70
2021/06/11 09:06:30;;;;;;;3.65;3.35;;;;;;;20.52;70.70;100421.31;257437;1099;114521;-72
2021/06/11 09:11:38;;;;;;;5.25;2.70;;;;;;;20.59;71.16;100404.55;258242;1098;114789;-72
2021/06/11 09:16:48;;;;;;;3.48;3.10;;;;;;;20.69;70.73;100410.95;257952;1095;115485;-74
2021/06/11 09:22:02;;;;;;;5.33;3.13;;;;;;;20.79;69.25;100401.09;257583;1096;114610;-72
2021/06/11 09:27:11;;;;;;;6.50;6.00;;;;;;;20.63;72.03;100392.50;257894;1095;114923;-70
2021/06/11 09:32:35;;;;;;;6.25;3.50;;;;;;;20.56;72.84;100400.25;259548;1095;115070;-72
2021/06/11 09:38:08;;;;;;;4.23;2.95;;;;;;;20.61;74.56;100391.76;259372;1097;115196;31
2021/06/11 09:43:14;;;;;;;5.37;3.97;;;;;;;20.68;71.66;100398.39;258778;1096;114700;-71
2021/06/11 09:48:28;;;;;;;3.00;2.80;;;;;;;20.70;70.73;100397.27;260582;1098;114972;-71
2021/06/11 09:53:30;;;;;;;5.15;4.70;;;;;;;20.68;72.12;100398.39;258481;1096;114999;-71
2021/06/11 09:58:37;;;;;;;3.48;3.20;;;;;;;20.70;71.20;100386.44;257137;1098;114682;-71
2021/06/11 10:03:42;;;;;;;3.20;2.85;;;;;;;20.74;71.08;100381.66;257240;1097;115007;-75
2021/06/11 10:08:46;;;;;;;3.33;3.03;;;;;;;20.82;68.25;100386.45;258085;1097;114434;-72
2021/06/11 10:13:49;;;;;;;5.40;3.20;;;;;;;20.85;68.97;100392.48;257944;1096;115256;-70
2021/06/11 10:18:50;;;;;;;4.23;3.10;;;;;;;21.39;69.65;100376.21;258495;1096;114926;-73
2021/06/11 10:23:54;;;;;;;3.63;2.85;;;;;;;21.50;68.44;100378.84;257792;1099;115033;-74
2021/06/11 10:29:21;;;;;;;2.73;2.53;;;;;;;21.31;67.95;100373.30;257899;1096;114835;-63
2021/06/11 10:34:50;;;;;;;3.08;2.85;;;;;;;21.27;67.96;100361.01;257644;1098;114415;-72
2021/06/11 10:39:52;;;;;;;3.45;2.40;;;;;;;21.50;69.53;100373.42;256610;1100;114658;-71
2021/06/11 10:44:54;;;;;;;3.55;3.18;;;;;;;21.56;68.18;100373.91;258467;1098;114571;-71
2021/06/11 10:49:59;;;;;;;2.88;2.68;;;;;;;21.43;66.67;100366.80;257154;1099;115214;-71
2021/06/11 10:55:14;;;;;;;4.00;2.80;;;;;;;21.54;64.57;100357.74;257711;1098;114488;-71
2021/06/11 11:00:19;;;;;;;4.30;3.50;;;;;;;21.80;65.45;100360.92;258574;1100;114327;-69
2021/06/11 11:05:47;;;;;;;11.27;4.70;;;;;;;21.95;64.03;100360.56;257708;1099;114367;-70
2021/06/11 11:10:52;;;;;;;4.78;3.13;;;;;;;21.63;60.65;100358.84;256601;1100;114924;-71
2021/06/11 11:15:57;;;;;;;2.90;2.70;;;;;;;21.97;59.80;100353.16;257349;1098;114977;-71
2021/06/11 11:21:25;;;;;;;3.73;2.47;;;;;;;21.97;60.31;100358.58;257399;1100;114997;-71
2021/06/11 11:26:41;;;;;;;2.30;2.13;;;;;;;22.05;62.58;100350.63;257392;1098;114788;-69
2021/06/11 11:31:46;;;;;;;2.93;2.68;;;;;;;22.81;55.00;100341.06;257118;1099;114478;-68
2021/06/11 11:36:48;;;;;;;3.97;2.37;;;;;;;23.61;53.60;100332.70;257919;1098;114715;-72
2021/06/11 11:41:52;;;;;;;3.65;2.13;;;;;;;24.06;53.51;100324.83;258095;1098;114867;-75
2021/06/11 11:46:54;;;;;;;4.65;2.98;;;;;;;24.44;50.12;100325.63;257996;1100;114450;-73
2021/06/11 11:51:56;;;;;;;3.38;2.80;;;;;;;23.98;51.06;100323.71;257170;1098;114665;-72
2021/06/11 12:07:53;;;;;;;4.78;2.50;;;;;;;24.20;52.58;100299.81;258995;1093;103140;-72
2021/06/11 12:13:03;;;;;;;2.83;2.38;;;;;;;23.28;52.46;100290.58;257545;1093;114423;-72
2021/06/11 12:18:12;;;;;;;3.15;2.40;;;;;;;25.59;43.94;100288.44;258252;1092;114843;-70
2021/06/11 12:23:14;;;;;;;3.33;2.15;;;;;;;24.48;46.29;100276.13;258525;1093;114263;-70
2021/06/11 12:28:17;;;;;;;3.70;2.45;;;;;;;23.68;48.84;100279.40;258187;1093;114360;-70
2021/06/11 12:33:19;;;;;;;4.65;2.80;;;;;;;23.51;50.47;100272.03;257661;1093;114782;-73
2021/06/11 12:38:21;;;;;;;2.95;2.65;;;;;;;23.05;52.80;100272.68;258475;1095;114512;-73
2021/06/11 12:44:14;;;;;;;2.78;2.00;;;;;;;23.39;50.87;100265.91;258357;1096;114409;-74
2021/06/11 12:48:53;;;;;;;3.87;2.43;;;;;;;23.22;51.75;100259.38;258575;1095;114080;-72
2021/06/11 12:53:58;;;;;;;2.93;2.15;;;;;;;23.44;52.58;100260.03;258799;1095;114410;-71
2021/06/11 12:59:00;;;;;;;3.18;2.98;;;;;;;23.51;52.44;100255.72;259665;1093;114060;-73
2021/06/11 13:04:03;;;;;;;3.15;2.60;;;;;;;23.02;53.53;100256.68;259597;1095;114443;-71
2021/06/11 13:09:06;;;;;;;3.00;1.80;;;;;;;22.76;51.61;100250.98;257722;1095;114422;-74
2021/06/11 13:14:11;;;;;;;2.40;1.78;;;;;;;23.33;46.98;100242.88;257517;1096;114361;-72
2021/06/11 13:19:16;;;;;;;3.78;2.40;;;;;;;23.70;46.28;100244.74;258548;1096;114581;-75
2021/06/11 13:24:18;;;;;;;1.97;1.83;;;;;;;23.58;45.56;100259.55;258809;1096;114310;-73
2021/06/11 13:29:21;;;;;;;2.08;1.93;;;;;;;23.68;47.11;100249.47;258416;1097;114287;-76
2021/06/11 13:34:25;;;;;;;3.95;2.20;;;;;;;23.77;49.02;100238.69;259862;1096;114298;-74
2021/06/11 13:39:27;;;;;;;4.00;3.40;;;;;;;23.39;48.98;100242.31;258720;1095;114548;-76
2021/06/11 13:49:37;;;;;;;3.80;3.00;;;;;;;24.09;47.82;100231.97;257816;1096;114999;-75
2021/06/11 13:54:40;;;;;;;;;;;;;;;24.10;44.97;100233.69;257584;1096;114378;-74
2021/06/11 13:59:42;;;;;;;4.75;4.40;;;;;;;24.08;47.21;100236.54;257847;1095;103140;-74
2021/06/11 14:04:45;;;;;;;2.90;2.27;;;;;;;24.55;44.68;100238.20;258097;1096;114665;-76
2021/06/11 14:09:47;;;;;;;2.70;2.08;;;;;;;24.70;41.76;100229.50;259372;1096;114704;-74
2021/06/11 14:14:49;;;;;;;2.78;2.43;;;;;;;24.63;41.63;100230.11;260112;1095;115922;-75
2021/06/11 14:19:54;;;;;;;5.90;1.55;;;;;;;24.49;39.94;100231.50;258369;1095;114514;-75
2021/06/11 14:25:00;;;;;;;3.58;2.33;;;;;;;24.49;40.32;100226.05;259079;1096;114296;-77
2021/06/11 14:30:06;;;;;;;2.70;1.93;;;;;;;24.59;41.69;100216.95;259980;1096;114610;-73
2021/06/11 14:35:09;;;;;;;1.93;1.80;;;;;;;24.74;41.44;100230.92;257938;1095;114738;-73
2021/06/11 14:40:12;;;;;;;1.88;1.75;;;;;;;24.58;40.32;100226.13;257652;1095;115449;-74
2021/06/11 14:45:15;;;;;;;;;;;;;;;24.56;37.04;100231.75;258382;1096;114388;-75
2021/06/11 14:50:17;;;;;;;3.70;1.73;;;;;;;24.57;37.58;100222.56;260040;1095;103065;-75
2021/06/11 14:55:21;;;;;;;4.05;2.40;;;;;;;24.60;37.40;100215.94;258049;1096;114307;-74
2021/06/11 15:00:30;;;;;;;2.95;1.75;;;;;;;24.58;38.52;100216.10;258012;1096;114131;-75
2021/06/11 15:05:34;;;;;;;3.00;1.70;;;;;;;24.48;39.57;100209.88;258843;1095;114417;-76
2021/06/11 15:10:38;;;;;;;2.18;1.30;;;;;;;24.50;39.00;100208.70;259301;1094;114613;-72
2021/06/11 15:15:41;;;;;;;2.18;1.73;;;;;;;24.44;38.29;100197.59;258958;1096;114283;-74
2021/06/11 15:20:43;;;;;;;3.93;1.57;;;;;;;24.54;39.82;100198.34;259439;1094;114959;-77
2021/06/11 15:25:46;;;;;;;4.33;2.00;;;;;;;24.92;39.68;100195.42;258249;1095;114689;-74
2021/06/11 15:30:51;;;;;;;4.60;1.80;;;;;;;25.16;39.87;100192.02;258473;1096;115208;-74
2021/06/11 15:35:54;;;;;;;3.23;2.48;;;;;;;25.64;38.23;100189.70;257585;1096;114536;-74
2021/06/11 15:40:57;;;;;;;2.98;2.40;;;;;;;26.13;38.17;100194.49;257828;1096;114852;-76
2021/06/11 15:45:59;;;;;;;2.73;2.25;;;;;;;26.77;37.41;100185.67;257816;1095;114357;-73
2021/06/11 15:51:02;;;;;;;3.28;2.10;;;;;;;25.42;39.00;100177.52;257684;1096;114078;-75
2021/06/11 15:56:04;;;;;;;2.67;2.47;;;;;;;25.24;41.68;100183.86;257984;1096;114728;-74
2021/06/11 16:01:07;;;;;;;4.03;3.00;;;;;;;25.20;39.99;100187.94;257966;1094;114223;-74
2021/06/11 16:06:09;;;;;;;4.38;2.30;;;;;;;24.72;40.18;100179.27;257566;1096;114274;-73
2021/06/11 16:11:11;;;;;;;5.63;3.90;;;;;;;24.45;42.03;100185.69;258234;1094;114175;-74
2021/06/11 16:16:14;;;;;;;2.85;2.65;;;;;;;24.21;42.69;100181.71;259809;1095;113815;-72
2021/06/11 16:21:16;;;;;;;6.00;2.35;;;;;;;24.31;42.40;100187.08;257818;1095;114211;-74
2021/06/11 16:26:21;;;;;;;6.78;2.58;;;;;;;24.30;42.79;100180.78;258025;1096;114641;-76
2021/06/11 16:31:23;;;;;;;3.50;2.50;;;;;;;24.27;44.41;100182.97;257929;1094;114026;-75
2021/06/11 16:36:25;;;;;;;5.18;3.28;;;;;;;24.25;44.74;100182.26;257646;1096;113107;-74
2021/06/11 16:41:28;;;;;;;3.05;2.10;;;;;;;24.05;44.61;100184.27;258821;1096;112985;-74
2021/06/11 16:46:30;;;;;;;3.20;2.18;;;;;;;23.81;45.70;100188.41;257905;1096;114007;-74
2021/06/11 16:51:33;;;;;;;5.55;4.15;;;;;;;23.67;46.36;100193.36;258577;1096;114132;-73
2021/06/11 16:56:35;;;;;;;3.98;2.75;;;;;;;23.59;48.21;100197.83;258157;1095;114839;-73
2021/06/11 17:01:37;;;;;;;5.13;3.10;;;;;;;23.44;49.13;100201.04;258481;1095;113356;-73
2021/06/11 17:06:39;;;;;;;3.40;2.35;;;;;;;23.33;49.09;100198.52;258149;1095;114796;-77
2021/06/11 17:11:42;;;;;;;3.15;2.85;;;;;;;23.20;50.72;100202.44;257324;1096;114672;-74
2021/06/11 17:16:44;;;;;;;2.73;2.50;;;;;;;23.13;50.18;100206.73;257561;1096;114356;-76
2021/06/11 17:21:49;;;;;;;20.58;4.00;;;;;;;22.86;52.94;100250.97;257876;1096;114042;-76
2021/06/11 17:26:54;;;;;;;16.70;3.63;;;;;;;20.54;77.61;100304.78;258074;1096;114195;-74
2021/06/11 17:32:05;;;;;;;9.38;4.98;;;;;;;17.83;100.00;100338.99;258329;1097;114932;-74
2021/06/11 17:37:11;;;;;;;5.80;2.35;;;;;;;17.77;100.00;100325.92;258027;1096;114834;-76
2021/06/11 17:42:14;;;;;;;3.55;2.30;;;;;;;17.66;100.00;100324.88;258453;1096;114520;-78
2021/06/11 17:47:20;;;;;;;4.25;2.93;;;;;;;17.84;100.00;100293.03;258355;1096;114831;-74
2021/06/11 17:52:27;;;;;;;2.75;2.55;;;;;;;18.00;100.00;100300.91;258678;1095;114816;-78
2021/06/11 17:57:30;;;;;;;3.65;2.40;;;;;;;18.18;100.00;100297.84;257911;1096;114248;-75
2021/06/11 18:02:33;;;;;;;3.20;2.30;;;;;;;18.37;100.00;100302.72;257936;1097;115032;-75
2021/06/11 18:07:35;;;;;;;3.88;3.10;;;;;;;18.40;100.00;100301.63;257892;1096;115186;-74
2021/06/11 18:12:42;;;;;;;5.55;4.18;;;;;;;18.51;100.00;100284.63;258193;1096;114274;-75
2021/06/11 18:17:53;;;;;;;4.15;3.45;;;;;;;18.57;100.00;100285.05;257854;1095;114755;-75
2021/06/11 18:22:56;;;;;;;5.25;3.55;;;;;;;17.84;100.00;100292.16;258372;1096;114521;-74
2021/06/11 18:28:18;;;;;;;5.73;3.70;;;;;;;17.83;100.00;100296.70;257924;1096;114798;-77
2021/06/11 18:33:25;;;;;;;6.30;3.58;;;;;;;17.52;100.00;100298.03;259356;1096;114317;-76
2021/06/11 18:38:28;;;;;;;7.28;3.73;;;;;;;17.40;100.00;100272.81;258602;1096;114679;-75
2021/06/11 18:43:33;;;;;;;3.38;3.08;;;;;;;17.53;100.00;100272.81;258193;1094;114736;-76
2021/06/11 18:48:41;;;;;;;5.45;3.53;;;;;;;17.40;100.00;100267.42;258551;1095;114441;-77
2021/06/11 18:53:50;;;;;;;4.10;3.70;;;;;;;17.41;100.00;100254.83;258304;1095;114556;-73
2021/06/11 18:58:54;;;;;;;4.03;3.43;;;;;;;17.77;100.00;100263.92;257673;1095;114797;-74
2021/06/11 19:04:14;;;;;;;6.20;3.58;;;;;;;17.72;100.00;100255.31;258735;1096;114414;-76
2021/06/11 19:09:18;;;;;;;4.78;3.28;;;;;;;17.64;100.00;100259.42;259096;1095;118433;-75
2021/06/11 19:14:25;;;;;;;3.98;3.38;;;;;;;17.65;100.00;100255.76;258328;1095;114849;-73
2021/06/11 19:19:32;;;;;;;4.83;3.80;;;;;;;17.52;100.00;100257.61;257923;1095;114554;-76
2021/06/11 19:24:49;;;;;;;3.55;3.25;;;;;;;17.50;100.00;100262.23;257234;1095;114550;-72
2021/06/11 19:30:19;;;;;;;9.60;3.60;;;;;;;17.43;100.00;100253.75;258504;1096;114701;-74
2021/06/11 19:35:44;;;;;;;4.35;3.98;;;;;;;17.46;100.00;100256.20;258725;1095;114651;-72
2021/06/11 19:40:51;;;;;;;5.60;3.50;;;;;;;17.33;100.00;100245.46;259014;1095;114406;-72
2021/06/11 19:45:59;;;;;;;4.30;3.93;;;;;;;17.21;100.00;100246.30;257844;1097;114481;-71
2021/06/11 19:51:04;;;;;;;5.23;4.13;;;;;;;16.77;100.00;100240.31;257132;1097;114411;-72
2021/06/11 19:56:15;;;;;;;6.75;4.93;;;;;;;16.66;100.00;100246.43;260727;1093;115149;-74
2021/06/11 20:01:36;;;;;;;3.40;3.10;;;;;;;16.64;100.00;100253.73;258398;1096;114075;-75
2021/06/11 20:06:38;;;;;;;4.50;3.78;;;;;;;16.81;100.00;100255.28;257986;1095;114811;-72
2021/06/11 20:11:43;;;;;;;4.23;3.78;;;;;;;16.86;100.00;100252.27;257013;1096;115694;-70
2021/06/11 20:16:48;;;;;;;6.10;4.20;;;;;;;17.10;100.00;100254.28;258190;1095;114367;-74
2021/06/11 20:22:00;;;;;;;4.48;4.08;;;;;;;16.94;100.00;100255.34;257779;1096;114829;-71
2021/06/11 20:27:02;;;;;;;5.05;4.43;;;;;;;16.82;100.00;100248.08;257572;1095;114776;-73
2021/06/11 20:32:05;;;;;;;8.38;5.00;;;;;;;16.75;100.00;100261.08;256618;1096;115348;-74
2021/06/11 20:37:08;;;;;;;6.57;4.23;;;;;;;16.79;100.00;100259.05;257323;1096;114448;-71
2021/06/11 20:42:14;;;;;;;5.18;4.68;;;;;;;16.78;100.00;100255.50;256871;1096;114603;-73
2021/06/11 20:47:20;;;;;;;5.35;4.68;;;;;;;16.62;100.00;100255.69;257311;1095;115130;-72
2021/06/11 20:52:22;;;;;;;7.28;6.13;;;;;;;16.25;100.00;100268.91;258391;1096;114778;-70
2021/06/11 20:57:25;;;;;;;7.18;6.48;;;;;;;16.47;100.00;100265.64;257571;1096;114585;-71
2021/06/11 21:02:28;;;;;;;8.37;7.67;;;;;;;16.62;100.00;100261.08;258297;1096;114757;-71
2021/06/11 21:07:31;;;;;;;8.78;7.70;;;;;;;16.71;100.00;100267.66;256427;1095;115081;-71
2021/06/11 21:12:36;;;;;;;8.55;7.48;;;;;;;16.68;100.00;100265.16;257134;1096;114514;-73
2021/06/11 21:17:40;;;;;;;7.23;6.53;;;;;;;16.75;100.00;100265.62;257384;1096;114864;-74
2021/06/11 21:22:44;;;;;;;7.20;6.50;;;;;;;16.46;100.00;100274.67;257662;1095;115026;-72
2021/06/11 21:27:47;;;;;;;9.95;6.95;;;;;;;16.32;100.00;100269.34;257748;1096;114622;-72
2021/06/11 21:32:49;;;;;;;8.17;7.37;;;;;;;16.38;100.00;100269.81;257376;1095;115224;-74
2021/06/11 21:37:56;;;;;;;9.55;6.50;;;;;;;16.32;100.00;100272.03;257669;1096;114945;-72
2021/06/11 21:43:04;;;;;;;7.35;6.65;;;;;;;16.18;100.00;100278.33;259722;1094;114713;-71
2021/06/11 21:48:07;;;;;;;7.33;6.58;;;;;;;16.27;100.00;100264.30;259909;1096;114966;-73
2021/06/11 21:53:09;;;;;;;8.63;7.83;;;;;;;16.27;100.00;100261.61;260266;1095;114803;-73
2021/06/11 22:03:22;;;;;;;7.93;7.18;;;;;;;16.04;100.00;100285.48;258482;1096;114985;-73
2021/06/11 22:08:25;;;;;;;8.65;7.80;;;;;;;16.20;100.00;100276.42;259096;1096;114930;-73
2021/06/11 22:13:27;;;;;;;8.13;7.43;;;;;;;16.11;100.00;100267.10;258272;1096;114483;-72
2021/06/11 22:18:30;;;;;;;9.10;7.70;;;;;;;15.98;100.00;100277.81;257441;1095;114540;-76
2021/06/11 22:23:32;;;;;;;8.88;8.18;;;;;;;15.86;100.00;100282.15;259752;1095;114649;-74
2021/06/11 22:33:59;;;;;;;8.95;8.05;;;;;;;15.99;100.00;100279.55;258592;1094;114974;-73
2021/06/11 22:39:02;;;;;;;8.87;8.07;;;;;;;15.95;100.00;100271.77;259958;1096;114572;-68
2021/06/11 22:44:10;;;;;;;12.63;7.58;;;;;;;15.78;100.00;100268.30;259595;1095;116042;-72
2021/06/11 22:49:12;;;;;;;8.40;7.50;;;;;;;15.64;100.00;100263.81;257996;1096;114908;-72
2021/06/11 22:54:14;;;;;;;7.90;7.20;;;;;;;15.65;100.00;100261.98;257179;1097;114877;-73
2021/06/11 22:59:17;;;;;;;8.65;7.95;;;;;;;15.54;100.00;100257.28;256858;1096;115424;-73
2021/06/11 23:04:19;;;;;;;9.93;7.23;;;;;;;15.40;100.00;100267.08;257453;1095;115301;-72
2021/06/11 23:09:21;;;;;;;7.80;7.00;;;;;;;15.24;100.00;100266.28;258182;1096;114913;-73
2021/06/11 23:14:26;;;;;;;8.45;7.65;;;;;;;15.11;100.00;100277.78;258346;1096;114974;-73
2021/06/11 23:19:35;;;;;;;8.10;7.30;;;;;;;15.40;100.00;100269.76;258660;1096;115049;-73
2021/06/11 23:29:56;;;;;;;10.73;9.05;;;;;;;15.44;100.00;100268.59;258803;1094;115044;-72
2021/06/11 23:35:08;;;;;;;8.90;7.90;;;;;;;15.43;100.00;100277.64;257795;1097;115065;-72
2021/06/11 23:40:16;;;;;;;8.15;7.35;;;;;;;15.35;100.00;100277.25;259225;1097;115178;-72
2021/06/11 23:45:25;;;;;;;9.38;8.53;;;;;;;15.43;100.00;100277.64;259130;1095;114917;-70
2021/06/11 23:50:27;;;;;;;11.25;8.90;;;;;;;15.45;100.00;100272.16;259968;1090;115104;-72
2021/06/11 23:55:29;;;;;;;7.05;6.45;;;;;;;15.47;100.00;100272.91;263153;1096;114833;-73
